首页
METAR-TAF:

METAR-TAF

机场 :

倫敦希斯路機場, 英格兰

纬度: 51-29N, 经度: 000-27W, 海拔: 24米

当前天气观测

该预报发布于25分钟前的08:20 UTC
风速7节,风向西
温度 17°C
湿度 77%
气压 1016 hPa
能见度10公里或以上
阴天层高于3900英尺

METAR: EGLL 140820Z AUTO 27007KT 9999 OVC039 17/13 Q1016 NOSIG

时间: 09:45 (08:45 UTC)

预报

该预报发布于3小时和40分钟前的05:05 UTC
预报有效从14日的 06点(UTC)到 15日的 12点(UTC)
风速8节,风向西
能见度10公里或以上
散云层高于3500英尺
几率 30% :
短暂存在
从 15日的 02点(UTC)到 15日的 09点(UTC)
多云层高于1200英尺

TAF: EGLL 140505Z 1406/1512 27008KT 9999 SCT035 PROB30 TEMPO 1502/1509 BKN012

超过4000个机场的气象观测和天气预报(METAR&TAF报告)。

可查询的气象台以黄色和红色小点在地图上表示。

将鼠标移到小点上方,可查看气象台名称。

然后点击查看天气观测和预报。

如需切换地图:点击带黑十字的绿色按钮放大地图;点击带横线的绿色按钮缩小地图;或者点击绿色箭头查看邻近地区的地图。


METAR-TAF: